sensor_id;sensor_type;location;lat;lon;timestamp;temperature;humidity
3281;DHT22;1652;51.318;6.202;2023-08-07T00:02:05;13.20;99.90
3281;DHT22;1652;51.318;6.202;2023-08-07T00:04:33;13.30;99.90
3281;DHT22;1652;51.318;6.202;2023-08-07T00:07:00;13.30;99.90
3281;DHT22;1652;51.318;6.202;2023-08-07T00:09:27;13.30;99.90
3281;DHT22;1652;51.318;6.202;2023-08-07T00:11:54;13.30;99.90
3281;DHT22;1652;51.318;6.202;2023-08-07T00:14:21;13.20;99.90
3281;DHT22;1652;51.318;6.202;2023-08-07T00:16:48;13.20;99.90
3281;DHT22;1652;51.318;6.202;2023-08-07T00:19:15;13.20;99.90
3281;DHT22;1652;51.318;6.202;2023-08-07T00:21:42;13.20;99.90
3281;DHT22;1652;51.318;6.202;2023-08-07T00:24:09;13.20;99.90
3281;DHT22;1652;51.318;6.202;2023-08-07T00:26:36;13.20;99.90
3281;DHT22;1652;51.318;6.202;2023-08-07T00:29:03;13.30;99.90
3281;DHT22;1652;51.318;6.202;2023-08-07T00:31:30;13.30;99.90
3281;DHT22;1652;51.318;6.202;2023-08-07T00:33:59;13.30;99.90
3281;DHT22;1652;51.318;6.202;2023-08-07T00:36:27;13.30;99.90
3281;DHT22;1652;51.318;6.202;2023-08-07T00:38:55;13.30;99.90
3281;DHT22;1652;51.318;6.202;2023-08-07T00:41:22;13.20;99.90
3281;DHT22;1652;51.318;6.202;2023-08-07T00:43:49;13.30;99.90
3281;DHT22;1652;51.318;6.202;2023-08-07T00:46:17;13.30;99.90
3281;DHT22;1652;51.318;6.202;2023-08-07T00:48:44;13.30;99.90
3281;DHT22;1652;51.318;6.202;2023-08-07T00:51:12;13.30;99.90
3281;DHT22;1652;51.318;6.202;2023-08-07T00:53:39;13.30;99.90
3281;DHT22;1652;51.318;6.202;2023-08-07T00:56:07;13.30;99.90
3281;DHT22;1652;51.318;6.202;2023-08-07T00:58:34;13.30;99.90
3281;DHT22;1652;51.318;6.202;2023-08-07T01:01:02;13.30;99.90
3281;DHT22;1652;51.318;6.202;2023-08-07T01:03:29;13.30;99.90
3281;DHT22;1652;51.318;6.202;2023-08-07T01:05:56;13.20;99.90
3281;DHT22;1652;51.318;6.202;2023-08-07T01:08:24;13.30;99.90
3281;DHT22;1652;51.318;6.202;2023-08-07T01:11:10;13.30;99.90
3281;DHT22;1652;51.318;6.202;2023-08-07T01:16:26;13.20;99.90
3281;DHT22;1652;51.318;6.202;2023-08-07T01:18:57;13.20;99.90
3281;DHT22;1652;51.318;6.202;2023-08-07T01:21:24;13.20;99.90
3281;DHT22;1652;51.318;6.202;2023-08-07T01:23:51;13.20;99.90
3281;DHT22;1652;51.318;6.202;2023-08-07T01:26:20;13.20;99.90
3281;DHT22;1652;51.318;6.202;2023-08-07T01:29:19;13.20;99.90
3281;DHT22;1652;51.318;6.202;2023-08-07T01:31:50;13.20;99.90
3281;DHT22;1652;51.318;6.202;2023-08-07T01:34:22;13.10;99.90
3281;DHT22;1652;51.318;6.202;2023-08-07T01:36:54;13.10;99.90
3281;DHT22;1652;51.318;6.202;2023-08-07T01:39:24;13.10;99.90
3281;DHT22;1652;51.318;6.202;2023-08-07T01:41:51;13.10;99.90
3281;DHT22;1652;51.318;6.202;2023-08-07T01:44:18;13.10;99.90
3281;DHT22;1652;51.318;6.202;2023-08-07T01:46:45;13.10;99.90
3281;DHT22;1652;51.318;6.202;2023-08-07T01:49:12;13.10;99.90
3281;DHT22;1652;51.318;6.202;2023-08-07T01:51:39;13.00;99.90
3281;DHT22;1652;51.318;6.202;2023-08-07T01:54:06;13.10;99.90
3281;DHT22;1652;51.318;6.202;2023-08-07T01:56:33;13.00;99.90
3281;DHT22;1652;51.318;6.202;2023-08-07T01:58:59;13.00;99.90
3281;DHT22;1652;51.318;6.202;2023-08-07T02:01:26;13.00;99.90
3281;DHT22;1652;51.318;6.202;2023-08-07T02:03:53;13.00;99.90
3281;DHT22;1652;51.318;6.202;2023-08-07T02:06:20;13.00;99.90
3281;DHT22;1652;51.318;6.202;2023-08-07T02:08:47;13.00;99.90
3281;DHT22;1652;51.318;6.202;2023-08-07T02:11:14;13.00;99.90
3281;DHT22;1652;51.318;6.202;2023-08-07T02:13:41;13.00;99.90
3281;DHT22;1652;51.318;6.202;2023-08-07T02:16:08;13.00;99.90
3281;DHT22;1652;51.318;6.202;2023-08-07T02:18:34;13.00;99.90
3281;DHT22;1652;51.318;6.202;2023-08-07T02:21:02;13.10;99.90
3281;DHT22;1652;51.318;6.202;2023-08-07T02:26:04;13.00;99.90
3281;DHT22;1652;51.318;6.202;2023-08-07T02:28:31;13.10;99.90
3281;DHT22;1652;51.318;6.202;2023-08-07T02:30:58;13.00;99.90
3281;DHT22;1652;51.318;6.202;2023-08-07T02:33:25;13.10;99.90
3281;DHT22;1652;51.318;6.202;2023-08-07T02:35:52;13.00;99.90
3281;DHT22;1652;51.318;6.202;2023-08-07T02:38:18;13.10;99.90
3281;DHT22;1652;51.318;6.202;2023-08-07T02:40:45;13.00;99.90
3281;DHT22;1652;51.318;6.202;2023-08-07T02:43:12;13.10;99.90
3281;DHT22;1652;51.318;6.202;2023-08-07T02:45:39;13.10;99.90
3281;DHT22;1652;51.318;6.202;2023-08-07T02:48:06;13.10;99.90
3281;DHT22;1652;51.318;6.202;2023-08-07T02:50:33;13.00;99.90
3281;DHT22;1652;51.318;6.202;2023-08-07T02:53:01;13.00;99.90
3281;DHT22;1652;51.318;6.202;2023-08-07T02:55:28;13.00;99.90
3281;DHT22;1652;51.318;6.202;2023-08-07T02:57:55;13.00;99.90
3281;DHT22;1652;51.318;6.202;2023-08-07T03:00:22;13.00;99.90
3281;DHT22;1652;51.318;6.202;2023-08-07T03:02:50;13.10;99.90
3281;DHT22;1652;51.318;6.202;2023-08-07T03:05:17;13.00;99.90
3281;DHT22;1652;51.318;6.202;2023-08-07T03:07:44;13.00;99.90
3281;DHT22;1652;51.318;6.202;2023-08-07T03:10:11;13.00;99.90
3281;DHT22;1652;51.318;6.202;2023-08-07T03:12:38;13.00;99.90
3281;DHT22;1652;51.318;6.202;2023-08-07T03:15:05;13.00;99.90
3281;DHT22;1652;51.318;6.202;2023-08-07T03:17:33;13.00;99.90
3281;DHT22;1652;51.318;6.202;2023-08-07T03:19:59;13.10;99.90
3281;DHT22;1652;51.318;6.202;2023-08-07T03:22:26;13.10;99.90
3281;DHT22;1652;51.318;6.202;2023-08-07T03:24:53;13.10;99.90
3281;DHT22;1652;51.318;6.202;2023-08-07T03:27:20;13.10;99.90
3281;DHT22;1652;51.318;6.202;2023-08-07T03:29:47;13.00;99.90
3281;DHT22;1652;51.318;6.202;2023-08-07T03:32:15;13.00;99.90
3281;DHT22;1652;51.318;6.202;2023-08-07T03:34:42;13.00;99.90
3281;DHT22;1652;51.318;6.202;2023-08-07T03:37:09;13.10;99.90
3281;DHT22;1652;51.318;6.202;2023-08-07T03:39:36;13.10;99.90
3281;DHT22;1652;51.318;6.202;2023-08-07T03:42:03;13.10;99.90
3281;DHT22;1652;51.318;6.202;2023-08-07T03:44:30;13.10;99.90
3281;DHT22;1652;51.318;6.202;2023-08-07T03:46:57;13.10;99.90
3281;DHT22;1652;51.318;6.202;2023-08-07T03:49:24;13.10;99.90
3281;DHT22;1652;51.318;6.202;2023-08-07T03:51:51;13.20;99.90
3281;DHT22;1652;51.318;6.202;2023-08-07T03:54:18;13.10;99.90
3281;DHT22;1652;51.318;6.202;2023-08-07T03:56:45;13.10;99.90
3281;DHT22;1652;51.318;6.202;2023-08-07T03:59:13;13.10;99.90
3281;DHT22;1652;51.318;6.202;2023-08-07T04:01:40;13.10;99.90
3281;DHT22;1652;51.318;6.202;2023-08-07T04:04:07;13.10;99.90
3281;DHT22;1652;51.318;6.202;2023-08-07T04:06:34;13.10;99.90
3281;DHT22;1652;51.318;6.202;2023-08-07T04:09:01;13.10;99.90
3281;DHT22;1652;51.318;6.202;2023-08-07T04:11:30;13.10;99.90
3281;DHT22;1652;51.318;6.202;2023-08-07T04:13:56;13.10;99.90
3281;DHT22;1652;51.318;6.202;2023-08-07T04:16:23;13.10;99.90
3281;DHT22;1652;51.318;6.202;2023-08-07T04:18:51;13.10;99.90
3281;DHT22;1652;51.318;6.202;2023-08-07T04:21:18;13.10;99.90
3281;DHT22;1652;51.318;6.202;2023-08-07T04:23:45;13.10;99.90
3281;DHT22;1652;51.318;6.202;2023-08-07T04:26:12;13.10;99.90
3281;DHT22;1652;51.318;6.202;2023-08-07T04:28:39;13.20;99.90
3281;DHT22;1652;51.318;6.202;2023-08-07T04:31:06;13.20;99.90
3281;DHT22;1652;51.318;6.202;2023-08-07T04:33:33;13.20;99.90
3281;DHT22;1652;51.318;6.202;2023-08-07T04:35:59;13.20;99.90
3281;DHT22;1652;51.318;6.202;2023-08-07T04:38:26;13.20;99.90
3281;DHT22;1652;51.318;6.202;2023-08-07T04:40:53;13.20;99.90
3281;DHT22;1652;51.318;6.202;2023-08-07T04:43:20;13.20;99.90
3281;DHT22;1652;51.318;6.202;2023-08-07T04:45:48;13.10;99.90
3281;DHT22;1652;51.318;6.202;2023-08-07T04:48:16;13.20;99.90
3281;DHT22;1652;51.318;6.202;2023-08-07T04:50:44;13.20;99.90
3281;DHT22;1652;51.318;6.202;2023-08-07T04:53:11;13.20;99.90
3281;DHT22;1652;51.318;6.202;2023-08-07T04:55:38;13.30;99.90
3281;DHT22;1652;51.318;6.202;2023-08-07T04:58:05;13.30;99.90
3281;DHT22;1652;51.318;6.202;2023-08-07T05:00:32;13.30;99.90
3281;DHT22;1652;51.318;6.202;2023-08-07T05:02:59;13.30;99.90
3281;DHT22;1652;51.318;6.202;2023-08-07T05:05:28;13.30;99.90
3281;DHT22;1652;51.318;6.202;2023-08-07T05:07:55;13.30;99.90
3281;DHT22;1652;51.318;6.202;2023-08-07T05:10:22;13.30;99.90
3281;DHT22;1652;51.318;6.202;2023-08-07T05:12:49;13.40;99.90
3281;DHT22;1652;51.318;6.202;2023-08-07T05:15:25;13.40;99.90
3281;DHT22;1652;51.318;6.202;2023-08-07T05:17:52;13.40;99.90
3281;DHT22;1652;51.318;6.202;2023-08-07T05:20:20;13.40;99.90
3281;DHT22;1652;51.318;6.202;2023-08-07T05:22:47;13.40;99.90
3281;DHT22;1652;51.318;6.202;2023-08-07T05:25:14;13.40;99.90
3281;DHT22;1652;51.318;6.202;2023-08-07T05:27:43;13.40;99.90
3281;DHT22;1652;51.318;6.202;2023-08-07T05:30:10;13.50;99.90
3281;DHT22;1652;51.318;6.202;2023-08-07T05:32:37;13.40;99.90
3281;DHT22;1652;51.318;6.202;2023-08-07T05:35:06;13.50;99.90
3281;DHT22;1652;51.318;6.202;2023-08-07T05:37:34;13.50;99.90
3281;DHT22;1652;51.318;6.202;2023-08-07T05:40:01;13.40;99.90
3281;DHT22;1652;51.318;6.202;2023-08-07T05:42:29;13.40;99.90
3281;DHT22;1652;51.318;6.202;2023-08-07T05:44:55;13.40;99.90
3281;DHT22;1652;51.318;6.202;2023-08-07T05:47:22;13.40;99.90
3281;DHT22;1652;51.318;6.202;2023-08-07T05:49:49;13.30;99.90
3281;DHT22;1652;51.318;6.202;2023-08-07T05:52:18;13.40;99.90
3281;DHT22;1652;51.318;6.202;2023-08-07T05:54:45;13.40;99.90
3281;DHT22;1652;51.318;6.202;2023-08-07T05:57:12;13.40;99.90
3281;DHT22;1652;51.318;6.202;2023-08-07T05:59:38;13.40;99.90
3281;DHT22;1652;51.318;6.202;2023-08-07T06:02:07;13.40;99.90
3281;DHT22;1652;51.318;6.202;2023-08-07T06:04:34;13.40;99.90
3281;DHT22;1652;51.318;6.202;2023-08-07T06:07:01;13.30;99.90
3281;DHT22;1652;51.318;6.202;2023-08-07T06:09:28;13.30;99.90
3281;DHT22;1652;51.318;6.202;2023-08-07T06:11:55;13.30;99.90
3281;DHT22;1652;51.318;6.202;2023-08-07T06:14:22;13.30;99.90
3281;DHT22;1652;51.318;6.202;2023-08-07T06:16:52;13.30;99.90
3281;DHT22;1652;51.318;6.202;2023-08-07T06:19:19;13.20;99.90
3281;DHT22;1652;51.318;6.202;2023-08-07T06:21:57;13.30;99.90
3281;DHT22;1652;51.318;6.202;2023-08-07T06:24:25;13.30;99.90
3281;DHT22;1652;51.318;6.202;2023-08-07T06:26:52;13.30;99.90
3281;DHT22;1652;51.318;6.202;2023-08-07T06:29:19;13.30;99.90
3281;DHT22;1652;51.318;6.202;2023-08-07T06:31:46;13.30;99.90
3281;DHT22;1652;51.318;6.202;2023-08-07T06:34:14;13.40;99.90
3281;DHT22;1652;51.318;6.202;2023-08-07T06:36:41;13.30;99.90
3281;DHT22;1652;51.318;6.202;2023-08-07T06:39:08;13.30;99.90
3281;DHT22;1652;51.318;6.202;2023-08-07T06:41:35;13.40;99.90
3281;DHT22;1652;51.318;6.202;2023-08-07T06:44:03;13.40;99.90
3281;DHT22;1652;51.318;6.202;2023-08-07T06:46:29;13.30;99.90
3281;DHT22;1652;51.318;6.202;2023-08-07T06:48:56;13.40;99.90
3281;DHT22;1652;51.318;6.202;2023-08-07T06:51:23;13.50;99.90
3281;DHT22;1652;51.318;6.202;2023-08-07T06:53:50;13.40;99.90
3281;DHT22;1652;51.318;6.202;2023-08-07T06:56:17;13.40;99.90
3281;DHT22;1652;51.318;6.202;2023-08-07T06:58:44;13.50;99.90
3281;DHT22;1652;51.318;6.202;2023-08-07T07:01:11;13.50;99.90
3281;DHT22;1652;51.318;6.202;2023-08-07T07:03:38;13.60;99.90
3281;DHT22;1652;51.318;6.202;2023-08-07T07:06:05;13.70;99.90
3281;DHT22;1652;51.318;6.202;2023-08-07T07:08:32;13.70;99.90
3281;DHT22;1652;51.318;6.202;2023-08-07T07:10:59;13.70;99.90
3281;DHT22;1652;51.318;6.202;2023-08-07T07:13:26;13.70;99.90
3281;DHT22;1652;51.318;6.202;2023-08-07T07:15:54;13.70;99.90
3281;DHT22;1652;51.318;6.202;2023-08-07T07:18:21;13.70;99.90
3281;DHT22;1652;51.318;6.202;2023-08-07T07:20:56;13.80;99.90
3281;DHT22;1652;51.318;6.202;2023-08-07T07:23:23;13.80;99.90
3281;DHT22;1652;51.318;6.202;2023-08-07T07:25:50;13.80;99.90
3281;DHT22;1652;51.318;6.202;2023-08-07T07:28:17;13.80;99.90
3281;DHT22;1652;51.318;6.202;2023-08-07T07:30:43;13.90;99.90
3281;DHT22;1652;51.318;6.202;2023-08-07T07:33:11;13.90;99.90
3281;DHT22;1652;51.318;6.202;2023-08-07T07:35:38;13.90;99.90
3281;DHT22;1652;51.318;6.202;2023-08-07T07:38:06;13.90;99.90
3281;DHT22;1652;51.318;6.202;2023-08-07T07:40:38;14.00;99.90
3281;DHT22;1652;51.318;6.202;2023-08-07T07:43:04;14.10;99.90
3281;DHT22;1652;51.318;6.202;2023-08-07T07:45:31;14.20;99.90
3281;DHT22;1652;51.318;6.202;2023-08-07T07:48:00;14.30;99.90
3281;DHT22;1652;51.318;6.202;2023-08-07T07:50:27;14.40;99.90
3281;DHT22;1652;51.318;6.202;2023-08-07T07:52:54;14.60;99.90
3281;DHT22;1652;51.318;6.202;2023-08-07T07:55:21;15.00;99.90
3281;DHT22;1652;51.318;6.202;2023-08-07T07:57:48;15.30;99.90
3281;DHT22;1652;51.318;6.202;2023-08-07T08:00:15;15.70;99.90
3281;DHT22;1652;51.318;6.202;2023-08-07T08:02:42;15.90;99.90
3281;DHT22;1652;51.318;6.202;2023-08-07T08:05:10;15.90;99.90
3281;DHT22;1652;51.318;6.202;2023-08-07T08:07:38;15.90;99.90
3281;DHT22;1652;51.318;6.202;2023-08-07T08:10:09;16.10;99.90
3281;DHT22;1652;51.318;6.202;2023-08-07T08:12:36;16.20;99.90
3281;DHT22;1652;51.318;6.202;2023-08-07T08:15:03;16.30;99.90
3281;DHT22;1652;51.318;6.202;2023-08-07T08:17:31;16.30;99.90
3281;DHT22;1652;51.318;6.202;2023-08-07T08:19:59;16.10;99.90
3281;DHT22;1652;51.318;6.202;2023-08-07T08:22:26;16.00;99.90
3281;DHT22;1652;51.318;6.202;2023-08-07T08:24:53;16.00;99.90
3281;DHT22;1652;51.318;6.202;2023-08-07T08:27:19;16.10;99.90
3281;DHT22;1652;51.318;6.202;2023-08-07T08:29:47;16.10;99.90
3281;DHT22;1652;51.318;6.202;2023-08-07T08:32:14;16.10;99.90
3281;DHT22;1652;51.318;6.202;2023-08-07T08:34:41;16.40;99.90
3281;DHT22;1652;51.318;6.202;2023-08-07T08:37:08;17.00;99.90
3281;DHT22;1652;51.318;6.202;2023-08-07T08:39:37;17.30;99.90
3281;DHT22;1652;51.318;6.202;2023-08-07T08:42:04;17.10;99.90
3281;DHT22;1652;51.318;6.202;2023-08-07T08:44:36;17.10;99.90
3281;DHT22;1652;51.318;6.202;2023-08-07T08:47:04;17.00;99.90
3281;DHT22;1652;51.318;6.202;2023-08-07T08:49:36;16.90;99.90
3281;DHT22;1652;51.318;6.202;2023-08-07T08:52:04;16.50;99.90
3281;DHT22;1652;51.318;6.202;2023-08-07T08:54:32;16.50;99.90
3281;DHT22;1652;51.318;6.202;2023-08-07T08:56:59;17.20;99.90
3281;DHT22;1652;51.318;6.202;2023-08-07T08:59:27;18.40;99.90
3281;DHT22;1652;51.318;6.202;2023-08-07T09:01:54;19.40;99.90
3281;DHT22;1652;51.318;6.202;2023-08-07T09:04:21;20.00;99.90
3281;DHT22;1652;51.318;6.202;2023-08-07T09:06:48;19.70;99.90
3281;DHT22;1652;51.318;6.202;2023-08-07T09:09:17;19.40;99.90
3281;DHT22;1652;51.318;6.202;2023-08-07T09:11:46;19.20;99.90
3281;DHT22;1652;51.318;6.202;2023-08-07T09:14:22;19.60;99.90
3281;DHT22;1652;51.318;6.202;2023-08-07T09:16:49;19.90;99.90
3281;DHT22;1652;51.318;6.202;2023-08-07T09:19:16;20.90;99.90
3281;DHT22;1652;51.318;6.202;2023-08-07T09:21:43;21.40;99.90
3281;DHT22;1652;51.318;6.202;2023-08-07T09:24:10;21.70;99.90
3281;DHT22;1652;51.318;6.202;2023-08-07T09:26:39;21.60;99.90
3281;DHT22;1652;51.318;6.202;2023-08-07T09:29:09;21.40;99.90
3281;DHT22;1652;51.318;6.202;2023-08-07T09:31:37;21.60;99.90
3281;DHT22;1652;51.318;6.202;2023-08-07T09:34:04;22.00;99.90
3281;DHT22;1652;51.318;6.202;2023-08-07T09:36:32;21.80;99.90
3281;DHT22;1652;51.318;6.202;2023-08-07T09:39:03;21.70;99.90
3281;DHT22;1652;51.318;6.202;2023-08-07T09:41:30;21.50;99.90
3281;DHT22;1652;51.318;6.202;2023-08-07T09:43:58;21.20;99.90
3281;DHT22;1652;51.318;6.202;2023-08-07T09:46:27;20.80;99.90
3281;DHT22;1652;51.318;6.202;2023-08-07T09:48:57;20.50;99.90
3281;DHT22;1652;51.318;6.202;2023-08-07T09:51:25;20.20;99.90
3281;DHT22;1652;51.318;6.202;2023-08-07T09:53:52;20.10;99.90
3281;DHT22;1652;51.318;6.202;2023-08-07T09:56:19;20.30;99.90
3281;DHT22;1652;51.318;6.202;2023-08-07T09:58:49;20.60;99.90
3281;DHT22;1652;51.318;6.202;2023-08-07T10:01:16;20.70;99.90
3281;DHT22;1652;51.318;6.202;2023-08-07T10:03:44;20.60;99.90
3281;DHT22;1652;51.318;6.202;2023-08-07T10:06:12;20.60;99.90
3281;DHT22;1652;51.318;6.202;2023-08-07T10:08:39;20.70;99.90
3281;DHT22;1652;51.318;6.202;2023-08-07T10:11:08;20.60;99.90
3281;DHT22;1652;51.318;6.202;2023-08-07T10:13:37;20.60;99.90
3281;DHT22;1652;51.318;6.202;2023-08-07T10:16:06;20.10;99.90
3281;DHT22;1652;51.318;6.202;2023-08-07T10:18:36;19.70;99.90
3281;DHT22;1652;51.318;6.202;2023-08-07T10:21:05;19.60;99.90
3281;DHT22;1652;51.318;6.202;2023-08-07T10:23:34;19.50;99.90
3281;DHT22;1652;51.318;6.202;2023-08-07T10:26:04;19.40;99.90
3281;DHT22;1652;51.318;6.202;2023-08-07T10:28:35;19.30;99.90
3281;DHT22;1652;51.318;6.202;2023-08-07T10:31:07;19.10;99.90
3281;DHT22;1652;51.318;6.202;2023-08-07T10:33:35;19.10;99.90
3281;DHT22;1652;51.318;6.202;2023-08-07T10:36:08;19.10;99.90
3281;DHT22;1652;51.318;6.202;2023-08-07T10:38:35;19.20;99.90
3281;DHT22;1652;51.318;6.202;2023-08-07T10:41:12;19.20;99.90
3281;DHT22;1652;51.318;6.202;2023-08-07T10:46:14;19.30;99.90
3281;DHT22;1652;51.318;6.202;2023-08-07T10:48:43;19.50;99.90
3281;DHT22;1652;51.318;6.202;2023-08-07T10:51:14;19.70;99.90
3281;DHT22;1652;51.318;6.202;2023-08-07T10:53:49;20.00;99.90
3281;DHT22;1652;51.318;6.202;2023-08-07T10:56:31;19.80;99.90
3281;DHT22;1652;51.318;6.202;2023-08-07T10:59:08;19.80;99.90
3281;DHT22;1652;51.318;6.202;2023-08-07T11:04:11;19.70;99.90
3281;DHT22;1652;51.318;6.202;2023-08-07T11:06:40;19.30;99.90
3281;DHT22;1652;51.318;6.202;2023-08-07T11:09:09;19.10;99.90
3281;DHT22;1652;51.318;6.202;2023-08-07T11:14:11;19.10;99.90
3281;DHT22;1652;51.318;6.202;2023-08-07T11:16:39;19.20;99.90
3281;DHT22;1652;51.318;6.202;2023-08-07T11:19:07;19.30;99.90
3281;DHT22;1652;51.318;6.202;2023-08-07T11:21:34;19.40;99.90
3281;DHT22;1652;51.318;6.202;2023-08-07T11:24:02;19.40;99.90
3281;DHT22;1652;51.318;6.202;2023-08-07T11:26:29;19.60;99.90
3281;DHT22;1652;51.318;6.202;2023-08-07T11:28:57;20.00;99.90
3281;DHT22;1652;51.318;6.202;2023-08-07T11:31:24;20.40;99.90
3281;DHT22;1652;51.318;6.202;2023-08-07T11:33:52;20.80;99.90
3281;DHT22;1652;51.318;6.202;2023-08-07T11:36:19;20.90;99.90
3281;DHT22;1652;51.318;6.202;2023-08-07T11:38:46;20.80;99.90
3281;DHT22;1652;51.318;6.202;2023-08-07T11:51:55;20.10;99.90
3281;DHT22;1652;51.318;6.202;2023-08-07T11:54:22;20.00;99.90
3281;DHT22;1652;51.318;6.202;2023-08-07T11:56:49;19.90;99.90
3281;DHT22;1652;51.318;6.202;2023-08-07T11:59:17;19.80;99.90
3281;DHT22;1652;51.318;6.202;2023-08-07T12:01:45;19.70;99.90
3281;DHT22;1652;51.318;6.202;2023-08-07T12:04:12;19.60;99.90
3281;DHT22;1652;51.318;6.202;2023-08-07T12:06:55;19.60;99.90
3281;DHT22;1652;51.318;6.202;2023-08-07T12:09:23;19.60;99.90
3281;DHT22;1652;51.318;6.202;2023-08-07T12:11:56;19.60;99.90
3281;DHT22;1652;51.318;6.202;2023-08-07T12:14:31;19.60;99.90
3281;DHT22;1652;51.318;6.202;2023-08-07T12:17:01;19.60;99.90
3281;DHT22;1652;51.318;6.202;2023-08-07T12:19:38;19.70;99.90
3281;DHT22;1652;51.318;6.202;2023-08-07T12:22:07;19.80;99.90
3281;DHT22;1652;51.318;6.202;2023-08-07T12:24:36;19.70;99.90
3281;DHT22;1652;51.318;6.202;2023-08-07T12:27:04;19.70;99.90
3281;DHT22;1652;51.318;6.202;2023-08-07T12:29:31;19.80;99.90
3281;DHT22;1652;51.318;6.202;2023-08-07T12:31:58;19.80;99.90
3281;DHT22;1652;51.318;6.202;2023-08-07T12:34:27;19.80;99.90
3281;DHT22;1652;51.318;6.202;2023-08-07T12:36:57;19.90;99.90
3281;DHT22;1652;51.318;6.202;2023-08-07T12:39:25;19.90;99.90
3281;DHT22;1652;51.318;6.202;2023-08-07T12:42:12;19.90;99.90
3281;DHT22;1652;51.318;6.202;2023-08-07T12:44:41;19.80;99.90
3281;DHT22;1652;51.318;6.202;2023-08-07T12:47:09;19.70;99.90
3281;DHT22;1652;51.318;6.202;2023-08-07T12:49:36;19.50;99.90
3281;DHT22;1652;51.318;6.202;2023-08-07T12:52:04;19.40;99.90
3281;DHT22;1652;51.318;6.202;2023-08-07T12:54:31;19.40;99.90
3281;DHT22;1652;51.318;6.202;2023-08-07T12:56:58;19.30;99.90
3281;DHT22;1652;51.318;6.202;2023-08-07T12:59:25;19.40;99.90
3281;DHT22;1652;51.318;6.202;2023-08-07T13:01:52;19.50;99.90
3281;DHT22;1652;51.318;6.202;2023-08-07T13:04:20;19.70;99.90
3281;DHT22;1652;51.318;6.202;2023-08-07T13:06:47;20.00;99.90
3281;DHT22;1652;51.318;6.202;2023-08-07T13:09:16;20.20;99.90
3281;DHT22;1652;51.318;6.202;2023-08-07T13:11:43;20.40;99.90
3281;DHT22;1652;51.318;6.202;2023-08-07T13:14:10;20.50;99.90
3281;DHT22;1652;51.318;6.202;2023-08-07T13:16:36;20.50;99.90
3281;DHT22;1652;51.318;6.202;2023-08-07T13:19:03;20.50;99.90
3281;DHT22;1652;51.318;6.202;2023-08-07T13:21:31;20.70;99.90
3281;DHT22;1652;51.318;6.202;2023-08-07T13:23:58;20.70;99.90
3281;DHT22;1652;51.318;6.202;2023-08-07T13:26:25;20.70;99.90
3281;DHT22;1652;51.318;6.202;2023-08-07T13:28:52;20.70;99.90
3281;DHT22;1652;51.318;6.202;2023-08-07T13:31:19;20.50;99.90
3281;DHT22;1652;51.318;6.202;2023-08-07T13:33:46;20.50;99.90
3281;DHT22;1652;51.318;6.202;2023-08-07T13:36:12;20.50;99.90
3281;DHT22;1652;51.318;6.202;2023-08-07T13:38:39;20.40;99.90
3281;DHT22;1652;51.318;6.202;2023-08-07T13:41:07;20.20;99.90
3281;DHT22;1652;51.318;6.202;2023-08-07T13:43:34;20.10;99.90
3281;DHT22;1652;51.318;6.202;2023-08-07T13:46:01;20.10;99.90
3281;DHT22;1652;51.318;6.202;2023-08-07T13:48:28;20.20;99.90
3281;DHT22;1652;51.318;6.202;2023-08-07T13:50:55;20.20;99.90
3281;DHT22;1652;51.318;6.202;2023-08-07T13:53:22;20.40;99.90
3281;DHT22;1652;51.318;6.202;2023-08-07T13:55:50;20.50;99.90
3281;DHT22;1652;51.318;6.202;2023-08-07T13:58:17;20.50;99.90
3281;DHT22;1652;51.318;6.202;2023-08-07T14:00:44;20.30;99.90
3281;DHT22;1652;51.318;6.202;2023-08-07T14:03:11;20.10;99.90
3281;DHT22;1652;51.318;6.202;2023-08-07T14:05:40;20.20;99.90
3281;DHT22;1652;51.318;6.202;2023-08-07T14:08:07;20.30;99.90
3281;DHT22;1652;51.318;6.202;2023-08-07T14:10:36;20.40;99.90
3281;DHT22;1652;51.318;6.202;2023-08-07T14:13:05;20.40;99.90
3281;DHT22;1652;51.318;6.202;2023-08-07T14:15:32;20.20;99.90
3281;DHT22;1652;51.318;6.202;2023-08-07T14:17:59;19.80;99.90
3281;DHT22;1652;51.318;6.202;2023-08-07T14:20:27;19.70;99.90
3281;DHT22;1652;51.318;6.202;2023-08-07T14:22:54;19.50;99.90
3281;DHT22;1652;51.318;6.202;2023-08-07T14:25:34;19.40;99.90
3281;DHT22;1652;51.318;6.202;2023-08-07T14:28:01;19.50;99.90
3281;DHT22;1652;51.318;6.202;2023-08-07T14:30:28;19.80;99.90
3281;DHT22;1652;51.318;6.202;2023-08-07T14:32:55;20.00;99.90
3281;DHT22;1652;51.318;6.202;2023-08-07T14:35:22;20.30;99.90
3281;DHT22;1652;51.318;6.202;2023-08-07T14:37:48;20.30;99.90
3281;DHT22;1652;51.318;6.202;2023-08-07T14:40:15;20.30;99.90
3281;DHT22;1652;51.318;6.202;2023-08-07T14:42:42;20.30;99.90
3281;DHT22;1652;51.318;6.202;2023-08-07T14:45:09;20.50;99.90
3281;DHT22;1652;51.318;6.202;2023-08-07T14:47:36;20.50;99.90
3281;DHT22;1652;51.318;6.202;2023-08-07T14:50:04;20.70;99.90
3281;DHT22;1652;51.318;6.202;2023-08-07T14:52:31;20.60;99.90
3281;DHT22;1652;51.318;6.202;2023-08-07T14:54:58;20.60;99.90
3281;DHT22;1652;51.318;6.202;2023-08-07T14:57:25;20.60;99.90
3281;DHT22;1652;51.318;6.202;2023-08-07T14:59:52;20.70;99.90
3281;DHT22;1652;51.318;6.202;2023-08-07T15:02:19;20.80;99.90
3281;DHT22;1652;51.318;6.202;2023-08-07T15:04:46;20.90;99.90
3281;DHT22;1652;51.318;6.202;2023-08-07T15:07:12;21.00;99.90
3281;DHT22;1652;51.318;6.202;2023-08-07T15:09:39;21.00;99.90
3281;DHT22;1652;51.318;6.202;2023-08-07T15:12:07;20.90;99.90
3281;DHT22;1652;51.318;6.202;2023-08-07T15:14:34;20.70;99.90
3281;DHT22;1652;51.318;6.202;2023-08-07T15:17:01;20.60;99.90
3281;DHT22;1652;51.318;6.202;2023-08-07T15:19:28;20.30;99.90
3281;DHT22;1652;51.318;6.202;2023-08-07T15:21:55;20.30;99.90
3281;DHT22;1652;51.318;6.202;2023-08-07T15:24:22;20.00;99.90
3281;DHT22;1652;51.318;6.202;2023-08-07T15:26:49;19.70;99.90
3281;DHT22;1652;51.318;6.202;2023-08-07T15:29:16;19.40;99.90
3281;DHT22;1652;51.318;6.202;2023-08-07T15:31:43;19.30;99.90
3281;DHT22;1652;51.318;6.202;2023-08-07T15:34:10;19.10;99.90
3281;DHT22;1652;51.318;6.202;2023-08-07T15:36:37;19.10;99.90
3281;DHT22;1652;51.318;6.202;2023-08-07T15:39:04;19.10;99.90
3281;DHT22;1652;51.318;6.202;2023-08-07T15:41:31;19.10;99.90
3281;DHT22;1652;51.318;6.202;2023-08-07T15:43:57;19.00;99.90
3281;DHT22;1652;51.318;6.202;2023-08-07T15:46:24;18.80;99.90
3281;DHT22;1652;51.318;6.202;2023-08-07T15:48:51;18.80;99.90
3281;DHT22;1652;51.318;6.202;2023-08-07T15:53:56;19.00;99.90
3281;DHT22;1652;51.318;6.202;2023-08-07T15:56:24;19.00;99.90
3281;DHT22;1652;51.318;6.202;2023-08-07T15:58:51;19.00;99.90
3281;DHT22;1652;51.318;6.202;2023-08-07T16:01:18;18.90;99.90
3281;DHT22;1652;51.318;6.202;2023-08-07T16:03:45;18.80;99.90
3281;DHT22;1652;51.318;6.202;2023-08-07T16:06:11;18.70;99.90
3281;DHT22;1652;51.318;6.202;2023-08-07T16:08:38;18.80;99.90
3281;DHT22;1652;51.318;6.202;2023-08-07T16:11:05;18.80;99.90
3281;DHT22;1652;51.318;6.202;2023-08-07T16:13:32;18.80;99.90
3281;DHT22;1652;51.318;6.202;2023-08-07T16:15:59;18.90;99.90
3281;DHT22;1652;51.318;6.202;2023-08-07T16:18:26;19.00;99.90
3281;DHT22;1652;51.318;6.202;2023-08-07T16:20:53;19.20;99.90
3281;DHT22;1652;51.318;6.202;2023-08-07T16:23:20;19.20;99.90
3281;DHT22;1652;51.318;6.202;2023-08-07T16:25:47;19.20;99.90
3281;DHT22;1652;51.318;6.202;2023-08-07T16:28:14;19.10;99.90
3281;DHT22;1652;51.318;6.202;2023-08-07T16:30:41;19.00;99.90
3281;DHT22;1652;51.318;6.202;2023-08-07T16:33:08;19.10;99.90